createdAt,value
2022-10-24T00:00:28.543Z,26.81
2022-10-24T00:01:28.500Z,26.80
2022-10-24T00:02:28.626Z,26.81
2022-10-24T00:03:28.500Z,26.89
2022-10-24T00:04:28.499Z,26.82
2022-10-24T00:05:28.502Z,26.84
2022-10-24T00:06:28.499Z,26.92
2022-10-24T00:07:28.501Z,26.85
2022-10-24T00:08:28.500Z,26.76
2022-10-24T00:09:28.500Z,26.85
2022-10-24T00:10:28.499Z,26.82
2022-10-24T00:11:28.501Z,26.89
2022-10-24T00:12:28.502Z,26.80
2022-10-24T00:13:28.501Z,26.80
2022-10-24T00:14:28.500Z,26.87
2022-10-24T00:15:28.501Z,26.80
2022-10-24T00:16:28.501Z,26.77
2022-10-24T00:17:28.502Z,26.82
2022-10-24T00:18:28.522Z,26.77
2022-10-24T00:19:28.501Z,26.81
2022-10-24T00:20:28.501Z,26.84
2022-10-24T00:21:28.503Z,26.77
2022-10-24T00:22:28.502Z,26.80
2022-10-24T00:23:28.502Z,26.87
2022-10-24T00:24:28.504Z,26.85
2022-10-24T00:25:28.502Z,26.84
2022-10-24T00:26:28.502Z,26.82
2022-10-24T00:27:28.502Z,26.82
2022-10-24T00:28:28.503Z,26.76
2022-10-24T00:29:28.504Z,26.84
2022-10-24T00:30:28.501Z,26.88
2022-10-24T00:31:28.503Z,26.81
2022-10-24T00:32:28.505Z,26.80
2022-10-24T00:33:28.504Z,26.77
2022-10-24T00:34:28.525Z,26.88
2022-10-24T00:35:28.505Z,26.84
2022-10-24T00:36:28.507Z,26.82
2022-10-24T00:37:28.506Z,26.76
2022-10-24T00:38:28.502Z,26.87
2022-10-24T00:39:28.504Z,26.82
2022-10-24T00:40:28.504Z,26.80
2022-10-24T00:41:28.506Z,26.87
2022-10-24T00:42:28.503Z,26.77
2022-10-24T00:43:28.503Z,26.87
2022-10-24T00:44:28.503Z,26.91
2022-10-24T00:45:28.566Z,26.77
2022-10-24T00:46:28.507Z,26.81
2022-10-24T00:47:28.505Z,26.88
2022-10-24T00:48:28.509Z,26.82
2022-10-24T00:49:28.505Z,26.88
2022-10-24T00:50:28.529Z,26.84
2022-10-24T00:51:28.504Z,26.88
2022-10-24T00:52:28.505Z,26.85
2022-10-24T00:53:28.506Z,26.80
2022-10-24T00:54:28.503Z,26.80
2022-10-24T00:55:28.508Z,26.82
2022-10-24T00:56:28.504Z,26.85
2022-10-24T00:57:28.507Z,26.85
2022-10-24T00:58:28.507Z,26.84
2022-10-24T00:59:28.506Z,26.82
2022-10-24T01:00:28.567Z,26.81
2022-10-24T01:01:28.557Z,26.82
2022-10-24T01:02:28.506Z,26.76
2022-10-24T01:03:28.507Z,26.82
2022-10-24T01:04:28.505Z,26.80
2022-10-24T01:05:28.507Z,26.76
2022-10-24T01:06:28.528Z,26.84
2022-10-24T01:07:28.506Z,26.73
2022-10-24T01:08:28.506Z,26.82
2022-10-24T01:09:28.507Z,26.76
2022-10-24T01:10:28.541Z,26.84
2022-10-24T01:11:28.507Z,26.82
2022-10-24T01:12:28.507Z,26.82
2022-10-24T01:13:28.509Z,26.85
2022-10-24T01:14:28.507Z,26.76
2022-10-24T01:15:28.507Z,26.75
2022-10-24T01:16:28.509Z,26.75
2022-10-24T01:17:28.509Z,26.76
2022-10-24T01:18:28.507Z,26.80
2022-10-24T01:19:28.512Z,26.80
2022-10-24T01:20:28.511Z,26.82
2022-10-24T01:21:28.508Z,26.73
2022-10-24T01:22:28.530Z,26.82
2022-10-24T01:23:28.508Z,26.84
2022-10-24T01:24:28.508Z,26.82
2022-10-24T01:25:28.510Z,26.85
2022-10-24T01:26:28.507Z,26.82
2022-10-24T01:27:28.512Z,26.80
2022-10-24T01:28:28.509Z,26.80
2022-10-24T01:29:28.512Z,26.77
2022-10-24T01:30:28.509Z,26.81
2022-10-24T01:31:28.513Z,26.76
2022-10-24T01:32:28.510Z,26.82
2022-10-24T01:33:28.510Z,26.80
2022-10-24T01:34:28.509Z,26.81
2022-10-24T01:35:28.540Z,26.80
2022-10-24T01:36:28.510Z,26.77
2022-10-24T01:37:28.511Z,26.80
2022-10-24T01:38:28.538Z,26.82
2022-10-24T01:39:28.510Z,26.72
2022-10-24T01:40:28.510Z,26.80
2022-10-24T01:41:28.513Z,26.81
2022-10-24T01:42:28.509Z,26.84
2022-10-24T01:43:28.512Z,26.76
2022-10-24T01:44:28.509Z,26.80
2022-10-24T01:45:28.513Z,26.81
2022-10-24T01:46:28.509Z,26.75
2022-10-24T01:47:28.511Z,26.82
2022-10-24T01:48:28.511Z,26.77
2022-10-24T01:49:28.515Z,26.80
2022-10-24T01:50:28.514Z,26.87
2022-10-24T01:51:28.512Z,26.81
2022-10-24T01:52:28.511Z,26.80
2022-10-24T01:53:28.516Z,26.82
2022-10-24T01:54:28.534Z,26.80
2022-10-24T01:55:28.513Z,26.75
2022-10-24T01:56:28.521Z,26.76
2022-10-24T01:57:28.512Z,26.80
2022-10-24T01:58:28.512Z,26.76
2022-10-24T01:59:28.569Z,26.85
2022-10-24T02:00:28.650Z,26.81
2022-10-24T02:01:28.609Z,26.76
2022-10-24T02:02:28.511Z,26.76
2022-10-24T02:03:28.514Z,26.76
2022-10-24T02:04:28.514Z,26.82
2022-10-24T02:05:28.514Z,26.73
2022-10-24T02:06:28.512Z,26.82
2022-10-24T02:07:28.513Z,26.75
2022-10-24T02:08:28.512Z,26.82
2022-10-24T02:09:28.521Z,26.73
2022-10-24T02:10:28.533Z,26.81
2022-10-24T02:11:28.517Z,26.82
2022-10-24T02:12:28.514Z,26.84
2022-10-24T02:13:28.513Z,26.76
2022-10-24T02:14:28.516Z,26.80
2022-10-24T02:15:28.514Z,26.72
2022-10-24T02:16:28.516Z,26.73
2022-10-24T02:18:28.512Z,26.80
2022-10-24T02:19:28.516Z,26.82
2022-10-24T02:20:28.514Z,26.81
2022-10-24T02:21:28.514Z,26.72
2022-10-24T02:22:28.513Z,26.72
2022-10-24T02:23:28.516Z,26.77
2022-10-24T02:24:28.514Z,26.76
2022-10-24T02:25:28.518Z,26.75
2022-10-24T02:26:28.534Z,26.73
2022-10-24T02:27:28.515Z,26.67
2022-10-24T02:28:28.513Z,26.72
2022-10-24T02:29:28.515Z,26.66
2022-10-24T02:30:28.515Z,26.67
2022-10-24T02:31:28.520Z,26.75
2022-10-24T02:32:28.516Z,26.73
2022-10-24T02:33:28.516Z,26.82
2022-10-24T02:34:28.513Z,26.80
2022-10-24T02:35:28.517Z,26.82
2022-10-24T02:36:28.515Z,26.81
2022-10-24T02:37:28.515Z,26.80
2022-10-24T02:38:28.517Z,26.81
2022-10-24T02:39:28.515Z,26.81
2022-10-24T02:40:28.516Z,26.80
2022-10-24T02:41:28.518Z,26.80
2022-10-24T02:43:28.517Z,26.73
2022-10-24T02:44:28.514Z,26.75
2022-10-24T02:45:28.518Z,26.77
2022-10-24T02:46:28.516Z,26.76
2022-10-24T02:47:28.515Z,26.77
2022-10-24T02:48:28.666Z,26.76
2022-10-24T02:49:28.516Z,26.73
2022-10-24T02:50:28.515Z,26.82
2022-10-24T02:51:28.517Z,26.75
2022-10-24T02:52:28.517Z,26.77
2022-10-24T02:53:28.517Z,26.66
2022-10-24T02:54:28.518Z,26.72
2022-10-24T02:55:28.517Z,26.72
2022-10-24T02:56:28.517Z,26.82
2022-10-24T02:57:28.518Z,26.75
2022-10-24T02:58:28.538Z,26.75
2022-10-24T02:59:28.516Z,26.76
2022-10-24T03:00:28.592Z,26.76
2022-10-24T03:01:28.606Z,26.77
2022-10-24T03:02:28.518Z,26.70
2022-10-24T03:03:28.517Z,26.76
2022-10-24T03:04:28.516Z,26.70
2022-10-24T03:05:28.518Z,26.72
2022-10-24T03:06:28.516Z,26.77
2022-10-24T03:08:28.518Z,26.70
2022-10-24T03:09:28.518Z,26.73
2022-10-24T03:10:28.516Z,26.80
2022-10-24T03:11:28.518Z,26.77
2022-10-24T03:12:28.518Z,26.70
2022-10-24T03:13:28.519Z,26.76
2022-10-24T03:14:28.547Z,26.75
2022-10-24T03:15:28.519Z,26.77
2022-10-24T03:16:28.520Z,26.73
2022-10-24T03:17:28.519Z,26.76
2022-10-24T03:18:28.518Z,26.73
2022-10-24T03:19:28.518Z,26.82
2022-10-24T03:20:28.518Z,26.76
2022-10-24T03:21:28.519Z,26.81
2022-10-24T03:22:30.815Z,26.81
2022-10-24T03:23:28.522Z,26.69
2022-10-24T03:24:37.242Z,26.77
2022-10-24T03:25:28.519Z,26.77
2022-10-24T03:26:28.520Z,26.77
2022-10-24T03:27:28.519Z,26.77
2022-10-24T03:28:28.520Z,26.73
2022-10-24T03:29:28.523Z,26.75
2022-10-24T03:30:28.540Z,26.67
2022-10-24T03:31:28.520Z,26.81
2022-10-24T03:32:28.520Z,26.77
2022-10-24T03:33:28.521Z,26.76
2022-10-24T03:34:28.519Z,26.69
2022-10-24T03:35:28.519Z,26.67
2022-10-24T03:36:28.521Z,26.77
2022-10-24T03:37:28.520Z,26.75
2022-10-24T03:38:28.522Z,26.67
2022-10-24T03:39:28.519Z,26.80
2022-10-24T03:40:28.520Z,26.69
2022-10-24T03:41:28.520Z,26.75
2022-10-24T03:42:28.521Z,26.75
2022-10-24T03:43:28.519Z,26.73
2022-10-24T03:44:28.523Z,26.75
2022-10-24T03:45:28.520Z,26.76
2022-10-24T03:46:28.542Z,26.76
2022-10-24T03:47:28.519Z,26.66
2022-10-24T03:48:28.672Z,26.72
2022-10-24T03:49:28.522Z,26.66
2022-10-24T03:50:28.522Z,26.75
2022-10-24T03:51:28.520Z,26.73
2022-10-24T03:52:28.523Z,26.73
2022-10-24T03:53:28.520Z,26.76
2022-10-24T03:54:28.523Z,26.66
2022-10-24T03:55:28.522Z,26.75
2022-10-24T03:56:28.522Z,26.73
2022-10-24T03:57:28.525Z,26.72
2022-10-24T03:58:28.521Z,26.76
2022-10-24T03:59:28.521Z,26.80
2022-10-24T04:00:28.523Z,26.75
2022-10-24T04:01:28.663Z,26.76
2022-10-24T04:02:28.544Z,26.80
2022-10-24T04:03:28.521Z,26.76
2022-10-24T04:04:28.523Z,26.72
2022-10-24T04:05:28.550Z,26.73
2022-10-24T04:06:31.304Z,26.73
2022-10-24T04:07:28.521Z,26.73
2022-10-24T04:08:28.522Z,26.75
2022-10-24T04:09:28.524Z,26.73
2022-10-24T04:10:28.527Z,26.67
2022-10-24T04:11:28.524Z,26.73
2022-10-24T04:12:28.523Z,26.76
2022-10-24T04:13:28.523Z,26.76
2022-10-24T04:14:28.525Z,26.76
2022-10-24T04:15:28.522Z,26.73
2022-10-24T04:16:28.523Z,26.67
2022-10-24T04:17:28.523Z,26.82
2022-10-24T04:18:28.545Z,26.77
2022-10-24T04:19:28.522Z,26.75
2022-10-24T04:20:28.523Z,26.67
2022-10-24T04:21:28.523Z,26.82
2022-10-24T04:22:28.524Z,26.81
2022-10-24T04:23:28.524Z,26.73
2022-10-24T04:24:28.524Z,26.73
2022-10-24T04:25:28.524Z,26.81
2022-10-24T04:26:28.523Z,26.82
2022-10-24T04:27:28.524Z,26.75
2022-10-24T04:28:28.526Z,26.66
2022-10-24T04:29:28.524Z,26.84
2022-10-24T04:30:28.526Z,26.82
2022-10-24T04:31:28.523Z,26.75
2022-10-24T04:32:28.526Z,26.72
2022-10-24T04:33:28.525Z,26.75
2022-10-24T04:34:28.548Z,26.76
2022-10-24T04:35:28.526Z,26.67
2022-10-24T04:36:28.525Z,26.77
2022-10-24T04:37:28.524Z,26.77
2022-10-24T04:38:33.196Z,26.72
2022-10-24T04:39:28.525Z,26.72
2022-10-24T04:40:28.525Z,26.76
2022-10-24T04:41:28.526Z,26.76
2022-10-24T04:42:28.526Z,26.73
2022-10-24T04:43:28.526Z,26.67
2022-10-24T04:44:28.531Z,26.75
2022-10-24T04:45:28.525Z,26.76
2022-10-24T04:46:28.527Z,26.73
2022-10-24T04:47:28.527Z,26.76
2022-10-24T04:48:28.528Z,26.75
2022-10-24T04:49:28.527Z,26.67
2022-10-24T04:50:28.547Z,26.81
2022-10-24T04:51:28.527Z,26.73
2022-10-24T04:52:28.526Z,26.67
2022-10-24T04:53:28.527Z,26.75
2022-10-24T04:54:28.529Z,26.82
2022-10-24T04:55:28.595Z,26.76
2022-10-24T04:56:28.528Z,26.73
2022-10-24T04:57:28.526Z,26.81
2022-10-24T04:58:28.528Z,26.75
2022-10-24T04:59:28.527Z,26.76
2022-10-24T05:00:28.528Z,26.73
2022-10-24T05:01:28.587Z,26.73
2022-10-24T05:02:28.602Z,26.82
2022-10-24T05:03:28.525Z,26.77
2022-10-24T05:04:28.528Z,26.67
2022-10-24T05:05:28.529Z,26.77
2022-10-24T05:06:28.549Z,26.73
2022-10-24T05:07:28.528Z,26.76
2022-10-24T05:08:28.528Z,26.88
2022-10-24T05:09:28.528Z,26.85
2022-10-24T05:10:28.529Z,26.75
2022-10-24T05:11:28.527Z,26.85
2022-10-24T05:12:28.530Z,26.82
2022-10-24T05:13:31.751Z,26.87
2022-10-24T05:14:28.528Z,26.87
2022-10-24T05:15:28.528Z,26.87
2022-10-24T05:16:28.531Z,26.91
2022-10-24T05:17:28.529Z,26.97
2022-10-24T05:18:28.529Z,26.92
2022-10-24T05:19:28.528Z,26.92
2022-10-24T05:20:28.577Z,26.97
2022-10-24T05:21:28.530Z,26.89
2022-10-24T05:22:28.549Z,26.89
2022-10-24T05:23:28.529Z,26.95
2022-10-24T05:24:28.531Z,26.97
2022-10-24T05:25:28.530Z,27.00
2022-10-24T05:26:28.531Z,26.97
2022-10-24T05:27:28.528Z,26.97
2022-10-24T05:28:28.532Z,27.00
2022-10-24T05:29:28.530Z,27.04
2022-10-24T05:30:28.533Z,27.07
2022-10-24T05:31:28.600Z,27.04
2022-10-24T05:32:28.532Z,27.06
2022-10-24T05:33:28.532Z,27.13
2022-10-24T05:34:28.531Z,27.13
2022-10-24T05:35:28.530Z,27.12
2022-10-24T05:36:28.533Z,27.10
2022-10-24T05:38:28.556Z,27.14
2022-10-24T05:39:28.532Z,27.24
2022-10-24T05:40:28.533Z,27.25
2022-10-24T05:41:28.533Z,27.28
2022-10-24T05:42:28.537Z,27.24
2022-10-24T05:43:28.533Z,27.24
2022-10-24T05:44:28.535Z,27.24
2022-10-24T05:45:28.534Z,27.34
2022-10-24T05:46:28.535Z,27.32
2022-10-24T05:47:29.316Z,27.32
2022-10-24T05:48:28.686Z,27.36
2022-10-24T05:49:28.535Z,27.32
2022-10-24T05:50:28.536Z,27.36
2022-10-24T05:51:28.539Z,27.29
2022-10-24T05:52:28.537Z,27.39
2022-10-24T05:53:28.538Z,27.37
2022-10-24T05:54:37.550Z,27.41
2022-10-24T05:55:28.537Z,27.39
2022-10-24T05:56:28.539Z,27.41
2022-10-24T05:57:28.542Z,27.40
2022-10-24T05:58:28.539Z,27.39
2022-10-24T05:59:28.539Z,27.36
2022-10-24T06:00:28.582Z,27.49
2022-10-24T06:01:28.626Z,27.47
2022-10-24T06:02:28.738Z,27.47
2022-10-24T06:03:28.541Z,27.49
2022-10-24T06:04:28.543Z,27.49
2022-10-24T06:05:28.541Z,27.60
2022-10-24T06:06:28.547Z,27.60
2022-10-24T06:07:28.544Z,27.59
2022-10-24T06:08:28.545Z,27.63
2022-10-24T06:09:28.543Z,27.69
2022-10-24T06:10:28.638Z,27.67
2022-10-24T06:11:28.561Z,27.67
2022-10-24T06:12:28.547Z,27.77
2022-10-24T06:13:32.544Z,27.78
2022-10-24T06:14:28.547Z,27.69
2022-10-24T06:15:28.547Z,27.81
2022-10-24T06:16:28.548Z,27.81
2022-10-24T06:17:28.548Z,27.75
2022-10-24T06:18:28.554Z,27.90
2022-10-24T06:19:28.549Z,27.93
2022-10-24T06:20:28.721Z,27.81
2022-10-24T06:21:28.553Z,27.88
2022-10-24T06:22:28.551Z,27.84
2022-10-24T06:23:28.552Z,27.87
2022-10-24T06:24:28.554Z,27.72
2022-10-24T06:25:28.553Z,27.85
2022-10-24T06:26:28.575Z,27.77
2022-10-24T06:27:28.558Z,27.84
2022-10-24T06:28:28.558Z,27.70
2022-10-24T06:29:28.558Z,27.88
2022-10-24T06:30:28.558Z,27.75
2022-10-24T06:31:28.557Z,27.70
2022-10-24T06:32:28.559Z,27.90
2022-10-24T06:33:28.558Z,27.96
2022-10-24T06:34:28.560Z,27.84
2022-10-24T06:35:28.562Z,27.75
2022-10-24T06:36:30.799Z,27.67
2022-10-24T06:37:28.563Z,27.78
2022-10-24T06:38:28.562Z,27.84
2022-10-24T06:39:28.565Z,27.94
2022-10-24T06:40:28.566Z,27.81
2022-10-24T06:41:28.568Z,27.82
2022-10-24T06:42:28.588Z,27.88
2022-10-24T06:43:28.571Z,27.85
2022-10-24T06:44:28.572Z,27.93
2022-10-24T06:45:28.571Z,27.84
2022-10-24T06:46:28.568Z,27.84
2022-10-24T06:47:28.569Z,27.88
2022-10-24T06:48:28.576Z,27.85
2022-10-24T06:49:28.571Z,27.82
2022-10-24T06:50:28.572Z,27.88
2022-10-24T06:51:28.570Z,27.87
2022-10-24T06:52:28.572Z,27.92
2022-10-24T06:53:28.597Z,27.87
2022-10-24T06:54:30.329Z,27.84
2022-10-24T06:55:28.575Z,27.93
2022-10-24T06:56:28.576Z,27.93
2022-10-24T06:57:28.575Z,27.88
2022-10-24T06:58:28.599Z,27.96
2022-10-24T06:59:28.576Z,27.87
2022-10-24T07:01:28.749Z,27.96
2022-10-24T07:02:28.701Z,27.99
2022-10-24T07:03:28.580Z,27.87
2022-10-24T07:04:28.584Z,27.88
2022-10-24T07:05:28.583Z,27.92
2022-10-24T07:06:28.586Z,27.87
2022-10-24T07:07:28.582Z,27.87
2022-10-24T07:08:28.584Z,27.92
2022-10-24T07:09:28.584Z,27.87
2022-10-24T07:10:28.586Z,27.92
2022-10-24T07:11:28.586Z,27.88
2022-10-24T07:12:28.588Z,27.90
2022-10-24T07:13:28.588Z,27.92
2022-10-24T07:14:28.615Z,27.93
2022-10-24T07:15:28.590Z,27.85
2022-10-24T07:16:28.594Z,27.92
2022-10-24T07:17:28.596Z,27.85
2022-10-24T07:18:28.592Z,27.88
2022-10-24T07:19:28.593Z,27.82
2022-10-24T07:20:28.660Z,27.93
2022-10-24T07:21:28.598Z,27.97
2022-10-24T07:22:30.315Z,27.79
2022-10-24T07:23:28.596Z,27.84
2022-10-24T07:24:28.597Z,27.81
2022-10-24T07:25:28.597Z,27.90
2022-10-24T07:26:28.602Z,27.97
2022-10-24T07:27:28.599Z,27.87
2022-10-24T07:28:28.599Z,27.90
2022-10-24T07:29:28.599Z,27.87
2022-10-24T07:30:28.623Z,27.85
2022-10-24T07:31:28.603Z,27.88
2022-10-24T07:32:28.604Z,27.87
2022-10-24T07:33:28.603Z,27.84
2022-10-24T07:34:28.608Z,27.84
2022-10-24T07:35:28.606Z,27.78
2022-10-24T07:36:28.608Z,27.90
2022-10-24T07:37:28.640Z,27.79
2022-10-24T07:38:28.612Z,28.00
2022-10-24T07:39:28.606Z,27.93
2022-10-24T07:40:28.611Z,27.82
2022-10-24T07:41:28.608Z,27.90
2022-10-24T07:42:28.610Z,27.90
2022-10-24T07:43:28.612Z,27.93
2022-10-24T07:44:28.612Z,27.93
2022-10-24T07:45:28.611Z,27.92
2022-10-24T07:46:28.641Z,27.84
2022-10-24T07:47:28.615Z,27.92
2022-10-24T07:48:28.615Z,27.96
2022-10-24T07:49:31.476Z,27.94
2022-10-24T07:50:28.615Z,27.90
2022-10-24T07:51:28.619Z,27.88
2022-10-24T07:52:28.618Z,27.99
2022-10-24T07:53:28.620Z,27.88
2022-10-24T07:54:30.657Z,27.94
2022-10-24T07:55:28.621Z,27.90
2022-10-24T07:56:28.621Z,27.94
2022-10-24T07:57:28.627Z,27.94
2022-10-24T07:58:28.622Z,27.92
2022-10-24T07:59:41.237Z,28.02
2022-10-24T08:00:28.623Z,27.90
2022-10-24T08:01:28.671Z,27.88
2022-10-24T08:02:28.646Z,28.03
2022-10-24T08:03:28.626Z,27.92
2022-10-24T08:04:28.630Z,27.84
2022-10-24T08:05:28.629Z,27.84
2022-10-24T08:06:28.629Z,27.97
2022-10-24T08:07:28.629Z,27.93
2022-10-24T08:08:36.650Z,27.93
2022-10-24T08:09:28.633Z,27.87
2022-10-24T08:10:28.631Z,27.92
2022-10-24T08:11:28.637Z,27.97
2022-10-24T08:12:28.634Z,27.88
2022-10-24T08:13:28.634Z,27.93
2022-10-24T08:14:28.638Z,28.00
2022-10-24T08:15:28.637Z,27.99
2022-10-24T08:16:28.636Z,27.93
2022-10-24T08:17:28.640Z,27.94
2022-10-24T08:18:30.356Z,27.88
2022-10-24T08:19:28.643Z,27.94
2022-10-24T08:20:28.642Z,27.94
2022-10-24T08:21:28.641Z,27.97
2022-10-24T08:22:28.644Z,28.04
2022-10-24T08:23:28.642Z,28.07
2022-10-24T08:24:28.644Z,28.00
2022-10-24T08:25:28.644Z,28.07
2022-10-24T08:26:28.644Z,28.02
2022-10-24T08:27:28.647Z,27.97
2022-10-24T08:28:28.647Z,27.99
2022-10-24T08:29:28.649Z,27.97
2022-10-24T08:30:28.648Z,28.09
2022-10-24T08:31:28.651Z,27.99
2022-10-24T08:32:28.650Z,27.94
2022-10-24T08:33:28.652Z,27.97
2022-10-24T08:34:28.677Z,27.96
2022-10-24T08:35:28.653Z,27.93
2022-10-24T08:36:28.653Z,27.94
2022-10-24T08:37:28.710Z,27.96
2022-10-24T08:38:28.655Z,27.97
2022-10-24T08:39:28.656Z,27.97
2022-10-24T08:40:28.658Z,28.03
2022-10-24T08:41:28.662Z,27.96
2022-10-24T08:42:28.659Z,28.03
2022-10-24T08:43:28.660Z,28.03
2022-10-24T08:44:28.668Z,28.04
2022-10-24T08:45:28.662Z,27.96
2022-10-24T08:46:28.664Z,28.02
2022-10-24T08:47:28.706Z,27.99
2022-10-24T08:48:28.664Z,27.90
2022-10-24T08:49:28.667Z,27.92
2022-10-24T08:50:28.793Z,27.99
2022-10-24T08:51:28.668Z,27.94
2022-10-24T08:52:28.666Z,27.96
2022-10-24T08:53:28.668Z,27.96
2022-10-24T08:54:28.668Z,27.90
2022-10-24T08:55:48.205Z,27.88
2022-10-24T08:56:28.669Z,27.92
2022-10-24T08:57:28.706Z,27.99
2022-10-24T08:58:28.670Z,27.93
2022-10-24T08:59:28.674Z,27.84
2022-10-24T09:00:28.673Z,27.94
2022-10-24T09:01:28.728Z,27.88
2022-10-24T09:02:28.836Z,27.90
2022-10-24T09:03:43.864Z,27.92
2022-10-24T09:04:28.682Z,27.85
2022-10-24T09:05:28.679Z,27.81
2022-10-24T09:06:28.701Z,27.90
2022-10-24T09:07:28.681Z,27.94
2022-10-24T09:08:28.678Z,27.78
2022-10-24T09:09:28.682Z,27.79
2022-10-24T09:10:28.680Z,27.67
2022-10-24T09:11:28.688Z,27.85
2022-10-24T09:12:28.722Z,27.84
2022-10-24T09:13:28.683Z,27.82
2022-10-24T09:14:28.684Z,27.82
2022-10-24T09:15:28.685Z,27.72
2022-10-24T09:16:28.684Z,27.78
2022-10-24T09:17:28.706Z,27.81
2022-10-24T09:18:28.686Z,27.74
2022-10-24T09:19:28.689Z,27.85
2022-10-24T09:20:28.689Z,27.79
2022-10-24T09:21:28.688Z,27.74
2022-10-24T09:22:28.710Z,27.75
2022-10-24T09:23:28.690Z,27.75
2022-10-24T09:24:28.689Z,27.70
2022-10-24T09:25:28.694Z,27.72
2022-10-24T09:26:28.692Z,27.70
2022-10-24T09:27:28.696Z,27.69
2022-10-24T09:28:28.691Z,27.67
2022-10-24T09:29:28.694Z,27.69
2022-10-24T09:30:31.649Z,27.63
2022-10-24T09:31:28.701Z,27.66
2022-10-24T09:32:28.694Z,27.69
2022-10-24T09:33:28.696Z,27.77
2022-10-24T09:34:28.695Z,27.74
2022-10-24T09:35:28.698Z,27.77
2022-10-24T09:36:28.697Z,27.79
2022-10-24T09:37:32.419Z,27.74
2022-10-24T09:38:28.720Z,27.77
2022-10-24T09:39:28.700Z,27.78
2022-10-24T09:40:28.699Z,27.79
2022-10-24T09:41:28.702Z,27.78
2022-10-24T09:42:28.701Z,27.79
2022-10-24T09:43:28.702Z,27.78
2022-10-24T09:44:28.701Z,27.78
2022-10-24T09:45:28.704Z,27.77
2022-10-24T09:46:28.703Z,27.67
2022-10-24T09:47:28.707Z,27.77
2022-10-24T09:48:30.400Z,27.79
2022-10-24T09:49:28.706Z,27.75
2022-10-24T09:50:28.706Z,27.74
2022-10-24T09:51:28.711Z,27.78
2022-10-24T09:52:28.730Z,27.74
2022-10-24T09:53:28.710Z,27.75
2022-10-24T09:54:28.734Z,27.77
2022-10-24T09:55:28.743Z,27.75
2022-10-24T09:56:28.715Z,27.72
2022-10-24T09:57:30.859Z,27.69
2022-10-24T09:58:28.710Z,27.72
2022-10-24T09:59:28.711Z,27.74
2022-10-24T10:00:28.713Z,27.81
2022-10-24T10:01:28.764Z,27.75
2022-10-24T10:02:28.798Z,27.75
2022-10-24T10:03:28.716Z,27.82
2022-10-24T10:04:28.715Z,27.74
2022-10-24T10:05:28.715Z,27.81
2022-10-24T10:06:28.715Z,27.74
2022-10-24T10:07:28.732Z,27.78
2022-10-24T10:08:28.718Z,27.78
2022-10-24T10:09:28.719Z,27.82
2022-10-24T10:10:28.739Z,27.77
2022-10-24T10:11:28.719Z,27.81
2022-10-24T10:12:28.719Z,27.84
2022-10-24T10:13:28.725Z,27.84
2022-10-24T10:14:28.722Z,27.78
2022-10-24T10:15:28.722Z,27.78
2022-10-24T10:16:28.721Z,27.92
2022-10-24T10:17:28.724Z,27.85
2022-10-24T10:18:28.723Z,27.85
2022-10-24T10:19:28.725Z,27.97
2022-10-24T10:20:28.725Z,27.93
2022-10-24T10:21:28.727Z,27.84
2022-10-24T10:22:28.727Z,27.97
2022-10-24T10:23:28.729Z,28.02
2022-10-24T10:24:28.730Z,28.00
2022-10-24T10:25:28.730Z,28.03
2022-10-24T10:26:28.760Z,28.00
2022-10-24T10:27:28.732Z,27.94
2022-10-24T10:28:28.731Z,27.96
2022-10-24T10:29:28.735Z,27.96
2022-10-24T10:30:28.735Z,28.03
2022-10-24T10:31:28.735Z,27.96
2022-10-24T10:32:28.734Z,27.92
2022-10-24T10:33:28.803Z,28.04
2022-10-24T10:34:28.735Z,27.92
2022-10-24T10:35:28.739Z,27.99
2022-10-24T10:36:28.736Z,27.96
2022-10-24T10:37:28.741Z,28.00
2022-10-24T10:38:28.739Z,27.94
2022-10-24T10:39:28.741Z,27.93
2022-10-24T10:40:28.742Z,28.00
2022-10-24T10:41:28.742Z,27.85
2022-10-24T10:42:28.762Z,27.85
2022-10-24T10:43:28.747Z,27.99
2022-10-24T10:44:28.744Z,27.94
2022-10-24T10:45:28.750Z,27.93
2022-10-24T10:46:28.744Z,27.94
2022-10-24T10:47:28.746Z,27.97
2022-10-24T10:48:28.752Z,27.96
2022-10-24T10:49:28.751Z,28.02
2022-10-24T10:50:28.748Z,27.93
2022-10-24T10:51:28.762Z,28.02
2022-10-24T10:52:28.749Z,27.85
2022-10-24T10:53:28.752Z,27.94
2022-10-24T10:54:28.751Z,27.96
2022-10-24T10:55:28.754Z,28.00
2022-10-24T10:56:28.760Z,28.04
2022-10-24T10:57:29.103Z,27.94
2022-10-24T10:58:28.823Z,27.99
2022-10-24T10:59:29.601Z,28.03
2022-10-24T11:00:28.758Z,27.94
2022-10-24T11:01:28.944Z,27.96
2022-10-24T11:02:28.877Z,28.07
2022-10-24T11:03:28.759Z,28.07
2022-10-24T11:04:28.760Z,28.11
2022-10-24T11:05:28.764Z,28.09
2022-10-24T11:06:28.762Z,28.09
2022-10-24T11:07:28.767Z,28.09
2022-10-24T11:08:28.763Z,28.11
2022-10-24T11:09:28.764Z,28.04
2022-10-24T11:10:28.764Z,28.03
2022-10-24T11:11:28.765Z,27.97
2022-10-24T11:12:28.766Z,28.11
2022-10-24T11:13:32.519Z,28.14
2022-10-24T11:14:28.788Z,28.12
2022-10-24T11:15:28.769Z,28.02
2022-10-24T11:16:28.772Z,28.11
2022-10-24T11:17:28.773Z,27.99
2022-10-24T11:18:31.618Z,28.00
2022-10-24T11:19:28.773Z,28.11
2022-10-24T11:20:28.774Z,28.03
2022-10-24T11:21:28.775Z,28.09
2022-10-24T11:22:28.774Z,28.03
2022-10-24T11:23:28.777Z,28.12
2022-10-24T11:24:28.777Z,28.09
2022-10-24T11:25:28.779Z,28.02
2022-10-24T11:26:28.778Z,28.03
2022-10-24T11:27:28.781Z,28.04
2022-10-24T11:28:28.779Z,28.11
2022-10-24T11:29:28.782Z,28.00
2022-10-24T11:30:28.802Z,28.04
2022-10-24T11:31:28.784Z,28.14
2022-10-24T11:32:28.786Z,28.04
2022-10-24T11:33:28.787Z,28.02
2022-10-24T11:34:28.785Z,28.00
2022-10-24T11:35:28.787Z,28.09
2022-10-24T11:36:28.787Z,28.02
2022-10-24T11:37:28.790Z,28.06
2022-10-24T11:38:28.790Z,28.04
2022-10-24T11:39:28.790Z,28.07
2022-10-24T11:41:28.794Z,28.12
2022-10-24T11:42:28.793Z,28.07
2022-10-24T11:43:28.799Z,28.00
2022-10-24T11:44:28.794Z,28.00
2022-10-24T11:45:28.795Z,28.12
2022-10-24T11:46:28.831Z,28.14
2022-10-24T11:47:28.799Z,28.06
2022-10-24T11:48:28.800Z,28.03
2022-10-24T11:49:28.804Z,28.14
2022-10-24T11:50:28.798Z,28.07
2022-10-24T11:51:28.804Z,28.07
2022-10-24T11:52:28.801Z,28.09
2022-10-24T11:53:28.806Z,28.03
2022-10-24T11:54:28.804Z,28.11
2022-10-24T11:55:28.804Z,28.09
2022-10-24T11:56:28.805Z,28.04
2022-10-24T11:57:28.807Z,28.04
2022-10-24T11:58:28.807Z,28.03
2022-10-24T11:59:28.809Z,28.03
2022-10-24T12:00:28.809Z,28.06
2022-10-24T12:01:28.869Z,28.14
2022-10-24T12:02:28.885Z,28.07
2022-10-24T12:03:28.813Z,28.06
2022-10-24T12:04:28.813Z,28.06
2022-10-24T12:05:28.876Z,28.09
2022-10-24T12:06:28.813Z,28.06
2022-10-24T12:07:28.814Z,28.12
2022-10-24T12:08:28.820Z,28.09
2022-10-24T12:09:30.851Z,28.04
2022-10-24T12:10:28.817Z,28.03
2022-10-24T12:11:28.819Z,28.09
2022-10-24T12:12:28.829Z,28.11
2022-10-24T12:13:28.820Z,28.06
2022-10-24T12:14:28.822Z,28.03
2022-10-24T12:15:28.823Z,28.09
2022-10-24T12:16:28.827Z,28.06
2022-10-24T12:17:28.823Z,27.99
2022-10-24T12:18:28.857Z,28.09
2022-10-24T12:19:28.825Z,28.07
2022-10-24T12:20:28.828Z,28.07
2022-10-24T12:21:28.833Z,27.97
2022-10-24T12:22:28.837Z,27.92
2022-10-24T12:23:28.827Z,27.94
2022-10-24T12:24:28.831Z,27.92
2022-10-24T12:25:28.831Z,27.93
2022-10-24T12:26:28.831Z,27.92
2022-10-24T12:27:28.831Z,27.88
2022-10-24T12:28:28.833Z,27.97
2022-10-24T12:29:28.834Z,27.88
2022-10-24T12:30:28.835Z,27.90
2022-10-24T12:31:28.835Z,27.94
2022-10-24T12:32:28.843Z,27.90
2022-10-24T12:33:28.837Z,27.90
2022-10-24T12:34:28.860Z,27.90
2022-10-24T12:35:31.114Z,27.90
2022-10-24T12:36:28.841Z,27.93
2022-10-24T12:37:28.841Z,27.88
2022-10-24T12:38:28.843Z,27.90
2022-10-24T12:39:28.865Z,27.90
2022-10-24T12:40:28.844Z,27.88
2022-10-24T12:41:28.844Z,27.87
2022-10-24T12:42:28.845Z,27.93
2022-10-24T12:43:28.843Z,27.87
2022-10-24T12:44:28.846Z,27.88
2022-10-24T12:45:28.846Z,27.84
2022-10-24T12:46:28.850Z,27.85
2022-10-24T12:47:28.846Z,27.82
2022-10-24T12:48:28.849Z,27.88
2022-10-24T12:49:28.849Z,27.90
2022-10-24T12:50:28.872Z,27.97
2022-10-24T12:51:28.853Z,27.79
2022-10-24T12:52:28.853Z,27.93
2022-10-24T12:53:28.852Z,27.84
2022-10-24T12:54:28.853Z,27.84
2022-10-24T12:55:28.852Z,27.81
2022-10-24T12:56:28.860Z,27.84
2022-10-24T12:57:28.855Z,27.93
2022-10-24T12:58:28.855Z,27.87